TimeEDT,TemperatureF,Dew PointF,Humidity,Sea Level PressureIn,VisibilityMPH,Wind Direction,Wind SpeedMPH,Gust SpeedMPH,PrecipitationIn,Events,Conditions,WindDirDegrees,DateUTC
12:45 AM,55.4,53.6,94,29.86,10.0,Calm,Calm,-,N/A,,Clear,0,2013-06-13 04:45:00
1:45 AM,55.4,53.6,94,29.83,10.0,Calm,Calm,-,N/A,,Clear,0,2013-06-13 05:45:00
2:45 AM,53.6,51.8,94,29.84,10.0,Calm,Calm,-,N/A,,Clear,0,2013-06-13 06:45:00
3:45 AM,57.2,53.6,88,29.84,10.0,Calm,Calm,-,N/A,,Clear,0,2013-06-13 07:45:00
5:45 AM,57.2,55.4,94,29.82,10.0,Calm,Calm,-,N/A,,Overcast,0,2013-06-13 09:45:00
6:45 AM,59.0,57.2,94,29.80,10.0,Calm,Calm,-,N/A,,Overcast,0,2013-06-13 10:45:00
7:45 AM,59.0,57.2,94,29.77,7.0,ESE,4.6,-,N/A,Rain,Light Rain,120,2013-06-13 11:45:00
8:45 AM,59.0,57.2,94,29.76,2.0,ESE,5.8,-,N/A,Rain,Light Rain,110,2013-06-13 12:45:00
9:45 AM,59.0,59.0,100,29.74,3.0,East,11.5,-,N/A,Rain,Light Rain,90,2013-06-13 13:45:00
10:45 AM,59.0,59.0,100,29.72,3.0,East,11.5,-,N/A,Rain,Light Rain,90,2013-06-13 14:45:00
11:50 AM,59.0,59.0,100,29.68,3.0,ESE,11.5,-,N/A,Rain,Light Rain,120,2013-06-13 15:50:00
12:50 PM,59.0,57.2,94,29.64,10.0,ESE,11.5,-,N/A,,Overcast,120,2013-06-13 16:50:00
1:45 PM,59.0,55.4,88,29.64,10.0,ESE,16.1,25.3,N/A,,Overcast,120,2013-06-13 17:45:00
2:45 PM,59.0,57.2,94,29.62,10.0,SE,16.1,19.6,N/A,,Overcast,130,2013-06-13 18:45:00
3:45 PM,59.0,57.2,94,29.61,2.0,ESE,12.7,20.7,N/A,Rain,Light Rain,120,2013-06-13 19:45:00
4:45 PM,57.2,57.2,100,29.59,2.0,East,11.5,-,N/A,Rain,Light Rain,80,2013-06-13 20:45:00
5:05 PM,57.2,57.2,100,29.59,2.0,East,8.1,-,N/A,Rain,Light Rain,80,2013-06-13 21:05:00
5:45 PM,57.2,57.2,100,29.58,2.0,NE,11.5,-,N/A,Rain,Light Rain,50,2013-06-13 21:45:00
6:45 PM,57.2,55.4,94,29.58,2.0,NE,11.5,23.0,N/A,Rain,Light Rain,50,2013-06-13 22:45:00
7:45 PM,55.4,55.4,100,29.58,2.0,NE,16.1,23.0,N/A,Rain,Rain,50,2013-06-13 23:45:00
8:45 PM,55.4,55.4,100,29.60,3.0,NE,15.0,-,N/A,,Overcast,50,2013-06-14 00:45:00
9:45 PM,55.4,53.6,94,29.60,3.0,ENE,11.5,23.0,N/A,Rain,Light Rain,60,2013-06-14 01:45:00
10:45 PM,53.6,53.6,100,29.61,3.0,NE,16.1,27.6,N/A,Rain,Light Rain,50,2013-06-14 02:45:00
11:45 PM,53.6,51.8,94,29.61,4.0,NE,17.3,-,N/A,Rain,Light Rain,40,2013-06-14 03:45:00